sensor_id;sensor_type;location;lat;lon;timestamp;P1;durP1;ratioP1;P2;durP2;ratioP2
12129;SDS011;6128;59.340;18.040;2022-11-18T00:01:18;2.20;;;1.80;;
12129;SDS011;6128;59.340;18.040;2022-11-18T00:03:47;2.17;;;1.97;;
12129;SDS011;6128;59.340;18.040;2022-11-18T00:06:17;2.97;;;2.07;;
12129;SDS011;6128;59.340;18.040;2022-11-18T00:08:48;2.03;;;1.83;;
12129;SDS011;6128;59.340;18.040;2022-11-18T00:11:16;2.10;;;2.00;;
12129;SDS011;6128;59.340;18.040;2022-11-18T00:14:00;2.10;;;1.90;;
12129;SDS011;6128;59.340;18.040;2022-11-18T00:16:45;1.77;;;1.67;;
12129;SDS011;6128;59.340;18.040;2022-11-18T00:19:15;1.90;;;1.43;;
12129;SDS011;6128;59.340;18.040;2022-11-18T00:21:43;2.20;;;2.00;;
12129;SDS011;6128;59.340;18.040;2022-11-18T00:24:13;1.83;;;1.63;;
12129;SDS011;6128;59.340;18.040;2022-11-18T00:26:41;1.80;;;1.70;;
12129;SDS011;6128;59.340;18.040;2022-11-18T00:29:10;1.90;;;1.70;;
12129;SDS011;6128;59.340;18.040;2022-11-18T00:31:39;1.70;;;1.60;;
12129;SDS011;6128;59.340;18.040;2022-11-18T00:34:23;2.37;;;2.13;;
12129;SDS011;6128;59.340;18.040;2022-11-18T00:36:50;1.90;;;1.70;;
12129;SDS011;6128;59.340;18.040;2022-11-18T00:39:19;1.53;;;1.43;;
12129;SDS011;6128;59.340;18.040;2022-11-18T00:41:47;4.27;;;2.80;;
12129;SDS011;6128;59.340;18.040;2022-11-18T00:44:28;2.90;;;1.57;;
12129;SDS011;6128;59.340;18.040;2022-11-18T00:46:56;2.60;;;1.80;;
12129;SDS011;6128;59.340;18.040;2022-11-18T00:49:26;1.67;;;1.57;;
12129;SDS011;6128;59.340;18.040;2022-11-18T00:51:53;1.77;;;1.63;;
12129;SDS011;6128;59.340;18.040;2022-11-18T00:54:21;1.93;;;1.73;;
12129;SDS011;6128;59.340;18.040;2022-11-18T00:56:50;1.73;;;1.63;;
12129;SDS011;6128;59.340;18.040;2022-11-18T00:59:18;2.10;;;1.80;;
12129;SDS011;6128;59.340;18.040;2022-11-18T01:01:45;1.50;;;1.30;;
12129;SDS011;6128;59.340;18.040;2022-11-18T01:04:13;1.70;;;1.57;;
12129;SDS011;6128;59.340;18.040;2022-11-18T01:06:43;1.80;;;1.70;;
12129;SDS011;6128;59.340;18.040;2022-11-18T01:09:11;1.83;;;1.57;;
12129;SDS011;6128;59.340;18.040;2022-11-18T01:11:41;1.80;;;1.70;;
12129;SDS011;6128;59.340;18.040;2022-11-18T01:14:26;2.17;;;1.47;;
12129;SDS011;6128;59.340;18.040;2022-11-18T01:16:56;1.40;;;1.30;;
12129;SDS011;6128;59.340;18.040;2022-11-18T01:19:24;1.47;;;1.10;;
12129;SDS011;6128;59.340;18.040;2022-11-18T01:21:53;2.17;;;1.30;;
12129;SDS011;6128;59.340;18.040;2022-11-18T01:24:27;1.67;;;1.10;;
12129;SDS011;6128;59.340;18.040;2022-11-18T01:26:56;6.47;;;5.87;;
12129;SDS011;6128;59.340;18.040;2022-11-18T01:29:23;4.10;;;3.70;;
12129;SDS011;6128;59.340;18.040;2022-11-18T01:31:52;2.93;;;2.20;;
12129;SDS011;6128;59.340;18.040;2022-11-18T01:34:23;2.00;;;1.70;;
12129;SDS011;6128;59.340;18.040;2022-11-18T01:36:54;3.73;;;1.70;;
12129;SDS011;6128;59.340;18.040;2022-11-18T01:39:22;3.63;;;2.20;;
12129;SDS011;6128;59.340;18.040;2022-11-18T01:41:50;1.63;;;0.90;;
12129;SDS011;6128;59.340;18.040;2022-11-18T01:47:22;2.20;;;1.43;;
12129;SDS011;6128;59.340;18.040;2022-11-18T01:49:55;1.43;;;1.33;;
12129;SDS011;6128;59.340;18.040;2022-11-18T01:52:26;1.93;;;1.30;;
12129;SDS011;6128;59.340;18.040;2022-11-18T01:54:54;1.97;;;1.27;;
12129;SDS011;6128;59.340;18.040;2022-11-18T01:57:26;2.87;;;1.40;;
12129;SDS011;6128;59.340;18.040;2022-11-18T01:59:57;1.43;;;1.20;;
12129;SDS011;6128;59.340;18.040;2022-11-18T02:02:29;1.50;;;1.40;;
12129;SDS011;6128;59.340;18.040;2022-11-18T02:04:58;1.63;;;1.53;;
12129;SDS011;6128;59.340;18.040;2022-11-18T02:07:30;1.97;;;1.77;;
12129;SDS011;6128;59.340;18.040;2022-11-18T02:10:05;1.50;;;1.30;;
12129;SDS011;6128;59.340;18.040;2022-11-18T02:12:34;1.00;;;1.00;;
12129;SDS011;6128;59.340;18.040;2022-11-18T02:15:02;1.37;;;1.27;;
12129;SDS011;6128;59.340;18.040;2022-11-18T02:17:34;2.20;;;1.40;;
12129;SDS011;6128;59.340;18.040;2022-11-18T02:20:22;1.47;;;1.10;;
12129;SDS011;6128;59.340;18.040;2022-11-18T02:26:03;1.20;;;1.10;;
12129;SDS011;6128;59.340;18.040;2022-11-18T02:29:01;2.50;;;2.00;;
12129;SDS011;6128;59.340;18.040;2022-11-18T02:31:36;3.13;;;1.67;;
12129;SDS011;6128;59.340;18.040;2022-11-18T02:34:11;1.13;;;1.00;;
12129;SDS011;6128;59.340;18.040;2022-11-18T02:36:48;1.23;;;1.13;;
12129;SDS011;6128;59.340;18.040;2022-11-18T02:39:19;1.43;;;1.00;;
12129;SDS011;6128;59.340;18.040;2022-11-18T02:41:49;2.00;;;1.00;;
12129;SDS011;6128;59.340;18.040;2022-11-18T02:44:25;1.53;;;0.80;;
12129;SDS011;6128;59.340;18.040;2022-11-18T02:46:55;2.10;;;0.80;;
12129;SDS011;6128;59.340;18.040;2022-11-18T02:49:26;1.47;;;1.10;;
12129;SDS011;6128;59.340;18.040;2022-11-18T02:51:59;1.43;;;0.80;;
12129;SDS011;6128;59.340;18.040;2022-11-18T02:54:29;1.10;;;1.00;;
12129;SDS011;6128;59.340;18.040;2022-11-18T02:56:59;1.00;;;0.90;;
12129;SDS011;6128;59.340;18.040;2022-11-18T02:59:29;0.90;;;0.80;;
12129;SDS011;6128;59.340;18.040;2022-11-18T03:01:59;2.47;;;0.73;;
12129;SDS011;6128;59.340;18.040;2022-11-18T03:04:28;1.80;;;0.77;;
12129;SDS011;6128;59.340;18.040;2022-11-18T03:06:59;1.40;;;0.70;;
12129;SDS011;6128;59.340;18.040;2022-11-18T03:09:32;1.07;;;0.77;;
12129;SDS011;6128;59.340;18.040;2022-11-18T03:12:06;1.57;;;0.77;;
12129;SDS011;6128;59.340;18.040;2022-11-18T03:14:43;1.33;;;0.70;;
12129;SDS011;6128;59.340;18.040;2022-11-18T03:17:18;0.97;;;0.97;;
12129;SDS011;6128;59.340;18.040;2022-11-18T03:19:56;0.83;;;0.70;;
12129;SDS011;6128;59.340;18.040;2022-11-18T03:22:38;1.10;;;1.00;;
12129;SDS011;6128;59.340;18.040;2022-11-18T03:25:12;1.50;;;1.33;;
12129;SDS011;6128;59.340;18.040;2022-11-18T03:27:46;1.13;;;1.00;;
12129;SDS011;6128;59.340;18.040;2022-11-18T03:30:21;1.13;;;1.03;;
12129;SDS011;6128;59.340;18.040;2022-11-18T03:32:51;2.87;;;1.13;;
12129;SDS011;6128;59.340;18.040;2022-11-18T03:35:23;2.37;;;1.00;;
12129;SDS011;6128;59.340;18.040;2022-11-18T03:37:53;1.33;;;0.80;;
12129;SDS011;6128;59.340;18.040;2022-11-18T03:40:25;1.83;;;1.30;;
12129;SDS011;6128;59.340;18.040;2022-11-18T03:42:58;2.70;;;1.00;;
12129;SDS011;6128;59.340;18.040;2022-11-18T03:45:34;0.80;;;0.70;;
12129;SDS011;6128;59.340;18.040;2022-11-18T03:48:06;1.70;;;1.33;;
12129;SDS011;6128;59.340;18.040;2022-11-18T03:50:37;2.00;;;0.60;;
12129;SDS011;6128;59.340;18.040;2022-11-18T03:53:07;1.03;;;0.77;;
12129;SDS011;6128;59.340;18.040;2022-11-18T03:55:39;1.10;;;1.00;;
12129;SDS011;6128;59.340;18.040;2022-11-18T03:58:10;1.47;;;0.97;;
12129;SDS011;6128;59.340;18.040;2022-11-18T04:00:45;1.60;;;0.70;;
12129;SDS011;6128;59.340;18.040;2022-11-18T04:03:15;1.53;;;0.80;;
12129;SDS011;6128;59.340;18.040;2022-11-18T04:05:43;1.77;;;0.77;;
12129;SDS011;6128;59.340;18.040;2022-11-18T04:08:15;2.20;;;1.07;;
12129;SDS011;6128;59.340;18.040;2022-11-18T04:10:54;1.57;;;0.90;;
12129;SDS011;6128;59.340;18.040;2022-11-18T04:13:31;1.67;;;0.77;;
12129;SDS011;6128;59.340;18.040;2022-11-18T04:16:03;1.60;;;1.00;;
12129;SDS011;6128;59.340;18.040;2022-11-18T04:18:33;2.33;;;0.57;;
12129;SDS011;6128;59.340;18.040;2022-11-18T04:21:01;1.03;;;0.80;;
12129;SDS011;6128;59.340;18.040;2022-11-18T04:23:29;3.10;;;1.00;;
12129;SDS011;6128;59.340;18.040;2022-11-18T04:25:57;2.10;;;0.80;;
12129;SDS011;6128;59.340;18.040;2022-11-18T04:28:25;1.43;;;0.70;;
12129;SDS011;6128;59.340;18.040;2022-11-18T04:30:54;1.03;;;0.70;;
12129;SDS011;6128;59.340;18.040;2022-11-18T04:33:23;0.80;;;0.70;;
12129;SDS011;6128;59.340;18.040;2022-11-18T04:35:50;0.53;;;0.53;;
12129;SDS011;6128;59.340;18.040;2022-11-18T04:38:18;1.17;;;1.03;;
12129;SDS011;6128;59.340;18.040;2022-11-18T04:40:46;1.90;;;0.73;;
12129;SDS011;6128;59.340;18.040;2022-11-18T04:43:13;4.00;;;1.10;;
12129;SDS011;6128;59.340;18.040;2022-11-18T04:45:40;0.93;;;0.60;;
12129;SDS011;6128;59.340;18.040;2022-11-18T04:48:08;1.30;;;0.60;;
12129;SDS011;6128;59.340;18.040;2022-11-18T04:50:42;1.17;;;0.53;;
12129;SDS011;6128;59.340;18.040;2022-11-18T04:53:09;0.60;;;0.60;;
12129;SDS011;6128;59.340;18.040;2022-11-18T04:55:37;0.73;;;0.73;;
12129;SDS011;6128;59.340;18.040;2022-11-18T04:58:04;0.80;;;0.80;;
12129;SDS011;6128;59.340;18.040;2022-11-18T05:00:32;1.13;;;0.90;;
12129;SDS011;6128;59.340;18.040;2022-11-18T05:02:59;1.67;;;1.03;;
12129;SDS011;6128;59.340;18.040;2022-11-18T05:05:27;0.77;;;0.57;;
12129;SDS011;6128;59.340;18.040;2022-11-18T05:07:56;0.97;;;0.40;;
12129;SDS011;6128;59.340;18.040;2022-11-18T05:10:24;0.90;;;0.43;;
12129;SDS011;6128;59.340;18.040;2022-11-18T05:12:52;1.43;;;0.70;;
12129;SDS011;6128;59.340;18.040;2022-11-18T05:15:20;1.33;;;0.60;;
12129;SDS011;6128;59.340;18.040;2022-11-18T05:17:48;0.70;;;0.60;;
12129;SDS011;6128;59.340;18.040;2022-11-18T05:20:16;1.20;;;0.70;;
12129;SDS011;6128;59.340;18.040;2022-11-18T05:22:46;0.70;;;0.50;;
12129;SDS011;6128;59.340;18.040;2022-11-18T05:25:15;0.80;;;0.57;;
12129;SDS011;6128;59.340;18.040;2022-11-18T05:27:45;1.77;;;0.73;;
12129;SDS011;6128;59.340;18.040;2022-11-18T05:30:12;0.90;;;0.50;;
12129;SDS011;6128;59.340;18.040;2022-11-18T05:32:41;0.73;;;0.30;;
12129;SDS011;6128;59.340;18.040;2022-11-18T05:35:11;1.80;;;0.47;;
12129;SDS011;6128;59.340;18.040;2022-11-18T05:37:39;0.87;;;0.57;;
12129;SDS011;6128;59.340;18.040;2022-11-18T05:40:08;0.60;;;0.50;;
12129;SDS011;6128;59.340;18.040;2022-11-18T05:42:43;2.20;;;0.60;;
12129;SDS011;6128;59.340;18.040;2022-11-18T05:45:28;1.40;;;0.57;;
12129;SDS011;6128;59.340;18.040;2022-11-18T05:47:59;1.00;;;0.60;;
12129;SDS011;6128;59.340;18.040;2022-11-18T05:50:28;1.63;;;0.40;;
12129;SDS011;6128;59.340;18.040;2022-11-18T05:52:57;1.70;;;0.50;;
12129;SDS011;6128;59.340;18.040;2022-11-18T05:55:25;1.17;;;0.40;;
12129;SDS011;6128;59.340;18.040;2022-11-18T05:57:57;2.20;;;0.80;;
12129;SDS011;6128;59.340;18.040;2022-11-18T06:00:27;0.63;;;0.43;;
12129;SDS011;6128;59.340;18.040;2022-11-18T06:02:56;0.70;;;0.40;;
12129;SDS011;6128;59.340;18.040;2022-11-18T06:05:28;1.50;;;0.53;;
12129;SDS011;6128;59.340;18.040;2022-11-18T06:07:59;0.77;;;0.40;;
12129;SDS011;6128;59.340;18.040;2022-11-18T06:10:28;0.90;;;0.47;;
12129;SDS011;6128;59.340;18.040;2022-11-18T06:13:16;1.30;;;0.30;;
12129;SDS011;6128;59.340;18.040;2022-11-18T06:15:49;0.53;;;0.47;;
12129;SDS011;6128;59.340;18.040;2022-11-18T06:18:20;1.83;;;0.70;;
12129;SDS011;6128;59.340;18.040;2022-11-18T06:20:49;0.97;;;0.40;;
12129;SDS011;6128;59.340;18.040;2022-11-18T06:23:23;0.97;;;0.47;;
12129;SDS011;6128;59.340;18.040;2022-11-18T06:25:54;0.63;;;0.53;;
12129;SDS011;6128;59.340;18.040;2022-11-18T06:28:24;1.80;;;0.60;;
12129;SDS011;6128;59.340;18.040;2022-11-18T06:31:01;0.70;;;0.50;;
12129;SDS011;6128;59.340;18.040;2022-11-18T06:33:29;0.50;;;0.50;;
12129;SDS011;6128;59.340;18.040;2022-11-18T06:36:09;0.80;;;0.80;;
12129;SDS011;6128;59.340;18.040;2022-11-18T06:38:39;3.17;;;0.80;;
12129;SDS011;6128;59.340;18.040;2022-11-18T06:41:31;1.70;;;0.60;;
12129;SDS011;6128;59.340;18.040;2022-11-18T06:44:05;1.43;;;0.57;;
12129;SDS011;6128;59.340;18.040;2022-11-18T06:46:34;1.50;;;0.60;;
12129;SDS011;6128;59.340;18.040;2022-11-18T06:49:19;1.30;;;0.70;;
12129;SDS011;6128;59.340;18.040;2022-11-18T06:51:46;1.43;;;0.60;;
12129;SDS011;6128;59.340;18.040;2022-11-18T06:54:19;1.37;;;0.60;;
12129;SDS011;6128;59.340;18.040;2022-11-18T06:56:47;0.67;;;0.67;;
12129;SDS011;6128;59.340;18.040;2022-11-18T06:59:20;1.37;;;0.70;;
12129;SDS011;6128;59.340;18.040;2022-11-18T07:01:58;0.60;;;0.50;;
12129;SDS011;6128;59.340;18.040;2022-11-18T07:04:26;0.87;;;0.50;;
12129;SDS011;6128;59.340;18.040;2022-11-18T07:07:03;1.50;;;0.50;;
12129;SDS011;6128;59.340;18.040;2022-11-18T07:09:31;1.87;;;0.60;;
12129;SDS011;6128;59.340;18.040;2022-11-18T07:11:59;0.73;;;0.50;;
12129;SDS011;6128;59.340;18.040;2022-11-18T07:14:28;0.60;;;0.60;;
12129;SDS011;6128;59.340;18.040;2022-11-18T07:16:57;1.33;;;0.63;;
12129;SDS011;6128;59.340;18.040;2022-11-18T07:19:24;1.40;;;0.53;;
12129;SDS011;6128;59.340;18.040;2022-11-18T07:21:52;0.97;;;0.63;;
12129;SDS011;6128;59.340;18.040;2022-11-18T07:24:20;2.87;;;0.70;;
12129;SDS011;6128;59.340;18.040;2022-11-18T07:26:48;0.73;;;0.40;;
12129;SDS011;6128;59.340;18.040;2022-11-18T07:29:15;1.17;;;0.60;;
12129;SDS011;6128;59.340;18.040;2022-11-18T07:31:44;1.77;;;0.70;;
12129;SDS011;6128;59.340;18.040;2022-11-18T07:34:16;1.27;;;0.70;;
12129;SDS011;6128;59.340;18.040;2022-11-18T07:36:45;0.63;;;0.43;;
12129;SDS011;6128;59.340;18.040;2022-11-18T07:39:25;1.03;;;0.67;;
12129;SDS011;6128;59.340;18.040;2022-11-18T07:41:53;1.27;;;0.60;;
12129;SDS011;6128;59.340;18.040;2022-11-18T07:44:58;1.40;;;0.70;;
12129;SDS011;6128;59.340;18.040;2022-11-18T07:47:19;1.23;;;0.80;;
12129;SDS011;6128;59.340;18.040;2022-11-18T07:49:46;1.10;;;0.90;;
12129;SDS011;6128;59.340;18.040;2022-11-18T07:52:13;1.23;;;0.73;;
12129;SDS011;6128;59.340;18.040;2022-11-18T07:54:41;2.20;;;0.80;;
12129;SDS011;6128;59.340;18.040;2022-11-18T07:57:10;1.07;;;0.60;;
12129;SDS011;6128;59.340;18.040;2022-11-18T07:59:40;1.30;;;0.97;;
12129;SDS011;6128;59.340;18.040;2022-11-18T08:02:09;1.50;;;0.70;;
12129;SDS011;6128;59.340;18.040;2022-11-18T08:04:39;1.23;;;0.80;;
12129;SDS011;6128;59.340;18.040;2022-11-18T08:07:11;1.97;;;1.00;;
12129;SDS011;6128;59.340;18.040;2022-11-18T08:09:39;2.50;;;0.90;;
12129;SDS011;6128;59.340;18.040;2022-11-18T08:12:09;1.53;;;0.77;;
12129;SDS011;6128;59.340;18.040;2022-11-18T08:14:38;1.40;;;0.80;;
12129;SDS011;6128;59.340;18.040;2022-11-18T08:17:10;1.13;;;0.53;;
12129;SDS011;6128;59.340;18.040;2022-11-18T08:19:42;1.37;;;0.60;;
12129;SDS011;6128;59.340;18.040;2022-11-18T08:22:12;1.03;;;0.50;;
12129;SDS011;6128;59.340;18.040;2022-11-18T08:24:41;0.70;;;0.50;;
12129;SDS011;6128;59.340;18.040;2022-11-18T08:27:08;0.90;;;0.50;;
12129;SDS011;6128;59.340;18.040;2022-11-18T08:29:38;1.73;;;0.40;;
12129;SDS011;6128;59.340;18.040;2022-11-18T08:32:06;1.63;;;0.70;;
12129;SDS011;6128;59.340;18.040;2022-11-18T08:34:36;1.27;;;0.70;;
12129;SDS011;6128;59.340;18.040;2022-11-18T08:37:06;0.60;;;0.50;;
12129;SDS011;6128;59.340;18.040;2022-11-18T08:39:34;0.60;;;0.60;;
12129;SDS011;6128;59.340;18.040;2022-11-18T08:42:01;0.60;;;0.60;;
12129;SDS011;6128;59.340;18.040;2022-11-18T08:44:29;0.93;;;0.63;;
12129;SDS011;6128;59.340;18.040;2022-11-18T08:47:00;1.43;;;0.63;;
12129;SDS011;6128;59.340;18.040;2022-11-18T08:49:27;1.80;;;0.70;;
12129;SDS011;6128;59.340;18.040;2022-11-18T08:51:57;0.63;;;0.53;;
12129;SDS011;6128;59.340;18.040;2022-11-18T08:54:29;1.33;;;0.60;;
12129;SDS011;6128;59.340;18.040;2022-11-18T08:56:57;1.57;;;0.60;;
12129;SDS011;6128;59.340;18.040;2022-11-18T08:59:24;1.13;;;0.50;;
12129;SDS011;6128;59.340;18.040;2022-11-18T09:01:52;0.60;;;0.43;;
12129;SDS011;6128;59.340;18.040;2022-11-18T09:04:20;0.33;;;0.30;;
12129;SDS011;6128;59.340;18.040;2022-11-18T09:06:48;1.07;;;0.87;;
12129;SDS011;6128;59.340;18.040;2022-11-18T09:09:15;1.77;;;0.60;;
12129;SDS011;6128;59.340;18.040;2022-11-18T09:11:45;0.73;;;0.47;;
12129;SDS011;6128;59.340;18.040;2022-11-18T09:14:14;2.43;;;0.60;;
12129;SDS011;6128;59.340;18.040;2022-11-18T09:16:44;0.50;;;0.50;;
12129;SDS011;6128;59.340;18.040;2022-11-18T09:19:13;1.03;;;0.40;;
12129;SDS011;6128;59.340;18.040;2022-11-18T09:21:40;0.93;;;0.60;;
12129;SDS011;6128;59.340;18.040;2022-11-18T09:24:08;1.47;;;0.60;;
12129;SDS011;6128;59.340;18.040;2022-11-18T09:26:36;1.43;;;0.57;;
12129;SDS011;6128;59.340;18.040;2022-11-18T09:29:05;1.03;;;0.50;;
12129;SDS011;6128;59.340;18.040;2022-11-18T09:31:35;1.43;;;0.70;;
12129;SDS011;6128;59.340;18.040;2022-11-18T09:34:03;1.37;;;0.80;;
12129;SDS011;6128;59.340;18.040;2022-11-18T09:36:30;1.00;;;0.50;;
12129;SDS011;6128;59.340;18.040;2022-11-18T09:38:58;1.47;;;0.53;;
12129;SDS011;6128;59.340;18.040;2022-11-18T09:47:08;0.67;;;0.60;;
12129;SDS011;6128;59.340;18.040;2022-11-18T09:49:46;1.63;;;0.80;;
12129;SDS011;6128;59.340;18.040;2022-11-18T09:52:17;1.00;;;0.77;;
12129;SDS011;6128;59.340;18.040;2022-11-18T09:54:49;0.93;;;0.60;;
12129;SDS011;6128;59.340;18.040;2022-11-18T09:57:37;1.23;;;0.50;;
12129;SDS011;6128;59.340;18.040;2022-11-18T10:00:16;1.20;;;0.50;;
12129;SDS011;6128;59.340;18.040;2022-11-18T10:02:54;0.80;;;0.70;;
12129;SDS011;6128;59.340;18.040;2022-11-18T10:05:28;0.60;;;0.50;;
12129;SDS011;6128;59.340;18.040;2022-11-18T10:08:00;0.90;;;0.60;;
12129;SDS011;6128;59.340;18.040;2022-11-18T10:10:35;1.60;;;0.50;;
12129;SDS011;6128;59.340;18.040;2022-11-18T10:13:11;0.80;;;0.43;;
12129;SDS011;6128;59.340;18.040;2022-11-18T10:16:02;2.07;;;0.70;;
12129;SDS011;6128;59.340;18.040;2022-11-18T10:18:46;1.13;;;0.93;;
12129;SDS011;6128;59.340;18.040;2022-11-18T10:21:23;0.97;;;0.77;;
12129;SDS011;6128;59.340;18.040;2022-11-18T10:23:59;0.73;;;0.73;;
12129;SDS011;6128;59.340;18.040;2022-11-18T10:26:33;1.33;;;0.80;;
12129;SDS011;6128;59.340;18.040;2022-11-18T10:29:02;1.60;;;0.80;;
12129;SDS011;6128;59.340;18.040;2022-11-18T10:31:36;1.07;;;0.50;;
12129;SDS011;6128;59.340;18.040;2022-11-18T10:34:07;0.57;;;0.57;;
12129;SDS011;6128;59.340;18.040;2022-11-18T10:36:38;2.97;;;0.57;;
12129;SDS011;6128;59.340;18.040;2022-11-18T10:39:10;0.40;;;0.40;;
12129;SDS011;6128;59.340;18.040;2022-11-18T10:41:43;1.30;;;0.60;;
12129;SDS011;6128;59.340;18.040;2022-11-18T10:47:20;0.87;;;0.40;;
12129;SDS011;6128;59.340;18.040;2022-11-18T10:49:58;1.00;;;0.60;;
12129;SDS011;6128;59.340;18.040;2022-11-18T10:52:27;1.43;;;0.80;;
12129;SDS011;6128;59.340;18.040;2022-11-18T10:55:06;0.30;;;0.30;;
12129;SDS011;6128;59.340;18.040;2022-11-18T11:00:41;1.40;;;0.73;;
12129;SDS011;6128;59.340;18.040;2022-11-18T11:06:26;1.60;;;0.80;;
12129;SDS011;6128;59.340;18.040;2022-11-18T11:08:56;1.23;;;0.73;;
12129;SDS011;6128;59.340;18.040;2022-11-18T11:11:26;2.53;;;0.80;;
12129;SDS011;6128;59.340;18.040;2022-11-18T11:13:59;1.70;;;0.40;;
12129;SDS011;6128;59.340;18.040;2022-11-18T11:16:35;0.67;;;0.67;;
12129;SDS011;6128;59.340;18.040;2022-11-18T11:19:11;2.07;;;0.77;;
12129;SDS011;6128;59.340;18.040;2022-11-18T11:21:43;1.63;;;0.93;;
12129;SDS011;6128;59.340;18.040;2022-11-18T11:24:13;1.53;;;0.60;;
12129;SDS011;6128;59.340;18.040;2022-11-18T11:26:45;1.13;;;0.57;;
12129;SDS011;6128;59.340;18.040;2022-11-18T11:29:24;0.77;;;0.50;;
12129;SDS011;6128;59.340;18.040;2022-11-18T11:32:06;1.37;;;0.50;;
12129;SDS011;6128;59.340;18.040;2022-11-18T11:34:54;0.63;;;0.43;;
12129;SDS011;6128;59.340;18.040;2022-11-18T11:37:35;2.23;;;0.63;;
12129;SDS011;6128;59.340;18.040;2022-11-18T11:40:16;0.60;;;0.40;;
12129;SDS011;6128;59.340;18.040;2022-11-18T11:42:55;1.40;;;0.67;;
12129;SDS011;6128;59.340;18.040;2022-11-18T11:45:38;0.47;;;0.47;;
12129;SDS011;6128;59.340;18.040;2022-11-18T11:48:17;1.63;;;0.50;;
12129;SDS011;6128;59.340;18.040;2022-11-18T11:50:53;0.60;;;0.30;;
12129;SDS011;6128;59.340;18.040;2022-11-18T11:53:30;0.77;;;0.53;;
12129;SDS011;6128;59.340;18.040;2022-11-18T11:56:14;1.10;;;0.60;;
12129;SDS011;6128;59.340;18.040;2022-11-18T12:01:54;0.90;;;0.53;;
12129;SDS011;6128;59.340;18.040;2022-11-18T12:04:35;0.60;;;0.43;;
12129;SDS011;6128;59.340;18.040;2022-11-18T12:07:11;1.07;;;0.63;;
12129;SDS011;6128;59.340;18.040;2022-11-18T12:09:44;1.83;;;0.57;;
12129;SDS011;6128;59.340;18.040;2022-11-18T12:12:31;1.20;;;0.60;;
12129;SDS011;6128;59.340;18.040;2022-11-18T12:15:15;0.57;;;0.40;;
12129;SDS011;6128;59.340;18.040;2022-11-18T12:18:09;0.37;;;0.37;;
12129;SDS011;6128;59.340;18.040;2022-11-18T12:20:43;0.97;;;0.57;;
12129;SDS011;6128;59.340;18.040;2022-11-18T12:23:15;0.93;;;0.43;;
12129;SDS011;6128;59.340;18.040;2022-11-18T12:25:51;0.60;;;0.30;;
12129;SDS011;6128;59.340;18.040;2022-11-18T12:28:25;0.73;;;0.50;;
12129;SDS011;6128;59.340;18.040;2022-11-18T12:33:57;0.70;;;0.40;;
12129;SDS011;6128;59.340;18.040;2022-11-18T12:36:30;3.73;;;0.90;;
12129;SDS011;6128;59.340;18.040;2022-11-18T12:39:37;0.53;;;0.20;;
12129;SDS011;6128;59.340;18.040;2022-11-18T12:42:03;1.53;;;0.40;;
12129;SDS011;6128;59.340;18.040;2022-11-18T12:44:49;0.40;;;0.30;;
12129;SDS011;6128;59.340;18.040;2022-11-18T12:47:54;0.70;;;0.30;;
12129;SDS011;6128;59.340;18.040;2022-11-18T12:50:40;1.77;;;0.40;;
12129;SDS011;6128;59.340;18.040;2022-11-18T12:53:26;0.97;;;0.60;;
12129;SDS011;6128;59.340;18.040;2022-11-18T12:56:10;0.30;;;0.30;;
12129;SDS011;6128;59.340;18.040;2022-11-18T12:58:46;1.60;;;0.53;;
12129;SDS011;6128;59.340;18.040;2022-11-18T13:01:20;0.60;;;0.37;;
12129;SDS011;6128;59.340;18.040;2022-11-18T13:03:48;0.33;;;0.30;;
12129;SDS011;6128;59.340;18.040;2022-11-18T13:06:20;0.40;;;0.20;;
12129;SDS011;6128;59.340;18.040;2022-11-18T13:08:51;0.90;;;0.40;;
12129;SDS011;6128;59.340;18.040;2022-11-18T13:11:22;1.13;;;0.43;;
12129;SDS011;6128;59.340;18.040;2022-11-18T13:14:11;3.53;;;0.60;;
12129;SDS011;6128;59.340;18.040;2022-11-18T13:20:16;2.50;;;0.77;;
12129;SDS011;6128;59.340;18.040;2022-11-18T13:22:48;1.03;;;0.77;;
12129;SDS011;6128;59.340;18.040;2022-11-18T13:25:33;2.50;;;0.40;;
12129;SDS011;6128;59.340;18.040;2022-11-18T13:28:04;0.97;;;0.43;;
12129;SDS011;6128;59.340;18.040;2022-11-18T13:30:42;2.50;;;0.50;;
12129;SDS011;6128;59.340;18.040;2022-11-18T13:33:15;0.73;;;0.50;;
12129;SDS011;6128;59.340;18.040;2022-11-18T13:35:42;0.67;;;0.40;;
12129;SDS011;6128;59.340;18.040;2022-11-18T13:38:17;2.90;;;0.83;;
12129;SDS011;6128;59.340;18.040;2022-11-18T13:40:47;0.57;;;0.30;;
12129;SDS011;6128;59.340;18.040;2022-11-18T13:43:44;0.37;;;0.23;;
12129;SDS011;6128;59.340;18.040;2022-11-18T13:46:12;0.97;;;0.80;;
12129;SDS011;6128;59.340;18.040;2022-11-18T13:48:45;0.77;;;0.33;;
12129;SDS011;6128;59.340;18.040;2022-11-18T13:51:21;0.30;;;0.30;;
12129;SDS011;6128;59.340;18.040;2022-11-18T13:53:49;1.37;;;0.50;;
12129;SDS011;6128;59.340;18.040;2022-11-18T13:56:18;1.47;;;0.40;;
12129;SDS011;6128;59.340;18.040;2022-11-18T13:58:52;1.07;;;0.40;;
12129;SDS011;6128;59.340;18.040;2022-11-18T14:01:23;1.27;;;0.50;;
12129;SDS011;6128;59.340;18.040;2022-11-18T14:03:52;1.37;;;0.63;;
12129;SDS011;6128;59.340;18.040;2022-11-18T14:06:23;2.93;;;0.70;;
12129;SDS011;6128;59.340;18.040;2022-11-18T14:09:14;1.30;;;0.43;;
12129;SDS011;6128;59.340;18.040;2022-11-18T14:11:45;1.60;;;0.60;;
12129;SDS011;6128;59.340;18.040;2022-11-18T14:14:29;1.03;;;0.47;;
12129;SDS011;6128;59.340;18.040;2022-11-18T14:17:11;0.90;;;0.40;;
12129;SDS011;6128;59.340;18.040;2022-11-18T14:19:42;0.40;;;0.40;;
12129;SDS011;6128;59.340;18.040;2022-11-18T14:22:11;0.57;;;0.57;;
12129;SDS011;6128;59.340;18.040;2022-11-18T14:24:41;0.67;;;0.63;;
12129;SDS011;6128;59.340;18.040;2022-11-18T14:30:31;0.90;;;0.50;;
12129;SDS011;6128;59.340;18.040;2022-11-18T14:35:52;3.90;;;0.90;;
12129;SDS011;6128;59.340;18.040;2022-11-18T14:38:23;0.97;;;0.53;;
12129;SDS011;6128;59.340;18.040;2022-11-18T14:40:56;0.70;;;0.70;;
12129;SDS011;6128;59.340;18.040;2022-11-18T14:43:25;1.23;;;0.40;;
12129;SDS011;6128;59.340;18.040;2022-11-18T14:45:56;1.27;;;0.50;;
12129;SDS011;6128;59.340;18.040;2022-11-18T14:48:25;1.30;;;0.60;;
12129;SDS011;6128;59.340;18.040;2022-11-18T14:50:54;0.93;;;0.43;;
12129;SDS011;6128;59.340;18.040;2022-11-18T14:53:21;1.33;;;0.60;;
12129;SDS011;6128;59.340;18.040;2022-11-18T14:55:49;0.80;;;0.47;;
12129;SDS011;6128;59.340;18.040;2022-11-18T14:58:18;0.60;;;0.40;;
12129;SDS011;6128;59.340;18.040;2022-11-18T15:00:46;1.30;;;0.77;;
12129;SDS011;6128;59.340;18.040;2022-11-18T15:03:16;0.80;;;0.53;;
12129;SDS011;6128;59.340;18.040;2022-11-18T15:05:45;5.00;;;3.37;;
12129;SDS011;6128;59.340;18.040;2022-11-18T15:08:21;1.03;;;0.70;;
12129;SDS011;6128;59.340;18.040;2022-11-18T15:10:49;1.07;;;0.80;;
12129;SDS011;6128;59.340;18.040;2022-11-18T15:13:16;1.27;;;0.80;;
12129;SDS011;6128;59.340;18.040;2022-11-18T15:15:43;0.63;;;0.60;;
12129;SDS011;6128;59.340;18.040;2022-11-18T15:18:10;1.77;;;0.50;;
12129;SDS011;6128;59.340;18.040;2022-11-18T15:20:42;1.50;;;0.77;;
12129;SDS011;6128;59.340;18.040;2022-11-18T15:23:10;1.60;;;0.70;;
12129;SDS011;6128;59.340;18.040;2022-11-18T15:25:38;2.00;;;0.60;;
12129;SDS011;6128;59.340;18.040;2022-11-18T15:28:08;0.90;;;0.60;;
12129;SDS011;6128;59.340;18.040;2022-11-18T15:30:38;1.47;;;0.60;;
12129;SDS011;6128;59.340;18.040;2022-11-18T15:33:05;1.07;;;0.97;;
12129;SDS011;6128;59.340;18.040;2022-11-18T15:35:32;1.80;;;0.87;;
12129;SDS011;6128;59.340;18.040;2022-11-18T15:38:01;1.90;;;1.00;;
12129;SDS011;6128;59.340;18.040;2022-11-18T15:40:29;0.67;;;0.60;;
12129;SDS011;6128;59.340;18.040;2022-11-18T15:42:56;1.00;;;0.67;;
12129;SDS011;6128;59.340;18.040;2022-11-18T15:45:23;3.17;;;0.80;;
12129;SDS011;6128;59.340;18.040;2022-11-18T15:47:51;0.70;;;0.70;;
12129;SDS011;6128;59.340;18.040;2022-11-18T15:50:18;1.03;;;0.83;;
12129;SDS011;6128;59.340;18.040;2022-11-18T15:52:46;1.20;;;1.13;;
12129;SDS011;6128;59.340;18.040;2022-11-18T15:55:15;0.50;;;0.50;;